YUKO2: Yukon 2NNE(N Canadian R)

Data processed at Sat Dec 09 2017 23:42


All information presented herein is the property of the government of the United States of America and may be revised or deleted at any time without prior notice.
Dissemination of this information without the expressed written consent of the Public Affairs Office, Tulsa District U.S. Army Corps of Engineers is strictly prohibited.
These data are gathered electronically and, as presented, have not undergone any form of quality control. These data are not guaranteed to be valid or correct.
Go to home page.
Go to station list.

Upstream stations:

Downstream station:
Previous Day
Next Day
Current Day
    
SHEF ID:       YUKO2     North Canadian River near Yukon,
STATION TYPE:  

                STAGE  STAGE(2)  RIV-FLOW  WTR-TEMP   CONDUCT  BAT-LOAD
                   ft        ft       cfs         F   umho/cm      volt
              Ccp-Rev   Ccp-Rev   Ccp-Rev   Ccp-Rev   Ccp-Rev   Ccp-Rev
(US/Central)
12/07 00:00      1.64      1.63        62     43.61       967     12.71
12/07 01:00      1.63      1.63        61     43.23       969     12.77
12/07 02:00      1.63      1.63        61     42.73       969     12.77
12/07 03:00      1.64      1.63        62     42.22       971     12.77
12/07 04:00      1.64      1.63        62     41.63       973     12.71
12/07 05:00      1.62      1.63        60     40.84       977     12.71
12/07 06:00      1.64      1.63        62     40.06       979     12.65
12/07 07:00      1.64      1.63        62     39.38       979     12.60
12/07 08:00      1.63      1.63        61     39.02       982     12.60
12/07 09:00      1.63      1.63        61     38.82       980     12.83
12/07 10:00      1.62      1.63        60     39.25       980     14.47
12/07 11:00      1.62      1.63        60     40.35       977     14.94
12/07 12:00      1.62      1.63        60     41.68       969     14.82
12/07 13:00      1.62      1.63        60     42.93       972     14.12
12/07 14:00      1.63      1.63        61     43.97       968     14.76
12/07 15:00      1.64      1.63        62     44.55       967     14.71
12/07 16:00      1.64      1.63        62     44.42       966     14.71
12/07 17:00      1.64      1.63        62     43.50       967     14.41
12/07 18:00      1.65      1.63        63     42.24       970     13.77
12/07 19:00      1.65      1.63        63     41.25       971     13.30
12/07 20:00      1.65      1.63        63     40.23       969     13.00
12/07 21:00      1.66      1.63        64     39.58       972     12.83
12/07 22:00      1.66      1.63        64     39.06       970     12.77
12/07 23:00      1.66      1.61        64     38.50       972     12.77